sensor_id;sensor_type;location;lat;lon;timestamp;temperature;humidity
8945;DHT22;4507;40.232;29.132;2023-07-13T00:01:40;23.90;92.20
8945;DHT22;4507;40.232;29.132;2023-07-13T00:04:11;23.90;92.30
8945;DHT22;4507;40.232;29.132;2023-07-13T00:06:41;23.80;92.30
8945;DHT22;4507;40.232;29.132;2023-07-13T00:09:12;23.90;92.40
8945;DHT22;4507;40.232;29.132;2023-07-13T00:11:41;23.90;92.50
8945;DHT22;4507;40.232;29.132;2023-07-13T00:14:11;23.90;92.50
8945;DHT22;4507;40.232;29.132;2023-07-13T00:16:40;23.90;92.90
8945;DHT22;4507;40.232;29.132;2023-07-13T00:19:13;23.90;92.60
8945;DHT22;4507;40.232;29.132;2023-07-13T00:21:42;23.80;92.50
8945;DHT22;4507;40.232;29.132;2023-07-13T00:24:13;23.80;92.50
8945;DHT22;4507;40.232;29.132;2023-07-13T00:26:43;23.90;92.50
8945;DHT22;4507;40.232;29.132;2023-07-13T00:29:13;23.80;92.50
8945;DHT22;4507;40.232;29.132;2023-07-13T00:32:02;23.80;92.50
8945;DHT22;4507;40.232;29.132;2023-07-13T00:34:33;23.80;92.50
8945;DHT22;4507;40.232;29.132;2023-07-13T00:37:02;23.80;92.50
8945;DHT22;4507;40.232;29.132;2023-07-13T00:39:35;23.80;92.50
8945;DHT22;4507;40.232;29.132;2023-07-13T00:42:05;23.80;92.60
8945;DHT22;4507;40.232;29.132;2023-07-13T00:44:34;23.80;92.50
8945;DHT22;4507;40.232;29.132;2023-07-13T00:47:03;23.80;92.60
8945;DHT22;4507;40.232;29.132;2023-07-13T00:49:43;23.70;92.60
8945;DHT22;4507;40.232;29.132;2023-07-13T00:52:12;23.80;92.70
8945;DHT22;4507;40.232;29.132;2023-07-13T00:54:45;23.80;92.80
8945;DHT22;4507;40.232;29.132;2023-07-13T01:00:42;23.70;92.90
8945;DHT22;4507;40.232;29.132;2023-07-13T01:04:01;23.70;92.90
8945;DHT22;4507;40.232;29.132;2023-07-13T01:06:49;23.60;92.90
8945;DHT22;4507;40.232;29.132;2023-07-13T01:09:19;23.60;93.00
8945;DHT22;4507;40.232;29.132;2023-07-13T01:12:10;23.60;93.20
8945;DHT22;4507;40.232;29.132;2023-07-13T01:14:47;23.60;93.30
8945;DHT22;4507;40.232;29.132;2023-07-13T01:21:33;23.50;93.30
8945;DHT22;4507;40.232;29.132;2023-07-13T01:24:08;23.40;93.30
8945;DHT22;4507;40.232;29.132;2023-07-13T01:26:37;23.40;93.30
8945;DHT22;4507;40.232;29.132;2023-07-13T01:29:07;23.40;93.40
8945;DHT22;4507;40.232;29.132;2023-07-13T01:31:38;23.30;93.50
8945;DHT22;4507;40.232;29.132;2023-07-13T01:34:08;23.30;93.40
8945;DHT22;4507;40.232;29.132;2023-07-13T01:36:38;23.20;93.40
8945;DHT22;4507;40.232;29.132;2023-07-13T01:39:07;23.20;93.50
8945;DHT22;4507;40.232;29.132;2023-07-13T01:41:36;23.10;94.00
8945;DHT22;4507;40.232;29.132;2023-07-13T01:44:05;23.10;93.80
8945;DHT22;4507;40.232;29.132;2023-07-13T01:46:34;23.00;93.80
8945;DHT22;4507;40.232;29.132;2023-07-13T01:49:03;23.00;93.90
8945;DHT22;4507;40.232;29.132;2023-07-13T01:51:32;22.90;93.80
8945;DHT22;4507;40.232;29.132;2023-07-13T01:54:02;22.90;93.80
8945;DHT22;4507;40.232;29.132;2023-07-13T01:56:31;22.80;93.90
8945;DHT22;4507;40.232;29.132;2023-07-13T01:59:08;22.70;94.10
8945;DHT22;4507;40.232;29.132;2023-07-13T02:01:40;22.70;94.40
8945;DHT22;4507;40.232;29.132;2023-07-13T02:04:09;22.60;94.60
8945;DHT22;4507;40.232;29.132;2023-07-13T02:06:38;22.60;94.70
8945;DHT22;4507;40.232;29.132;2023-07-13T02:09:09;22.60;94.60
8945;DHT22;4507;40.232;29.132;2023-07-13T02:11:38;22.50;94.50
8945;DHT22;4507;40.232;29.132;2023-07-13T02:14:07;22.50;94.50
8945;DHT22;4507;40.232;29.132;2023-07-13T02:16:36;22.40;94.50
8945;DHT22;4507;40.232;29.132;2023-07-13T02:19:05;22.30;94.60
8945;DHT22;4507;40.232;29.132;2023-07-13T02:21:35;22.30;94.80
8945;DHT22;4507;40.232;29.132;2023-07-13T02:24:04;22.30;95.00
8945;DHT22;4507;40.232;29.132;2023-07-13T02:26:36;22.20;95.20
8945;DHT22;4507;40.232;29.132;2023-07-13T02:29:05;22.20;95.40
8945;DHT22;4507;40.232;29.132;2023-07-13T02:31:34;22.20;95.60
8945;DHT22;4507;40.232;29.132;2023-07-13T02:34:04;22.20;95.70
8945;DHT22;4507;40.232;29.132;2023-07-13T02:40:12;22.20;95.70
8945;DHT22;4507;40.232;29.132;2023-07-13T02:42:42;22.20;95.70
8945;DHT22;4507;40.232;29.132;2023-07-13T02:45:11;22.20;95.80
8945;DHT22;4507;40.232;29.132;2023-07-13T02:47:42;22.10;95.70
8945;DHT22;4507;40.232;29.132;2023-07-13T02:50:11;22.10;95.70
8945;DHT22;4507;40.232;29.132;2023-07-13T02:52:40;22.10;95.80
8945;DHT22;4507;40.232;29.132;2023-07-13T02:55:09;22.00;95.80
8945;DHT22;4507;40.232;29.132;2023-07-13T02:57:38;22.00;95.90
8945;DHT22;4507;40.232;29.132;2023-07-13T03:00:10;22.00;96.00
8945;DHT22;4507;40.232;29.132;2023-07-13T03:02:58;21.90;96.20
8945;DHT22;4507;40.232;29.132;2023-07-13T03:09:16;21.90;96.50
8945;DHT22;4507;40.232;29.132;2023-07-13T03:11:53;21.90;96.50
8945;DHT22;4507;40.232;29.132;2023-07-13T03:14:27;21.90;96.70
8945;DHT22;4507;40.232;29.132;2023-07-13T03:17:00;21.80;96.70
8945;DHT22;4507;40.232;29.132;2023-07-13T03:19:33;21.90;96.90
8945;DHT22;4507;40.232;29.132;2023-07-13T03:22:04;21.90;97.00
8945;DHT22;4507;40.232;29.132;2023-07-13T03:24:34;21.90;97.40
8945;DHT22;4507;40.232;29.132;2023-07-13T03:27:07;21.90;97.10
8945;DHT22;4507;40.232;29.132;2023-07-13T03:29:39;22.00;97.20
8945;DHT22;4507;40.232;29.132;2023-07-13T03:32:10;22.00;97.30
8945;DHT22;4507;40.232;29.132;2023-07-13T03:34:39;22.10;97.40
8945;DHT22;4507;40.232;29.132;2023-07-13T03:37:08;22.10;97.70
8945;DHT22;4507;40.232;29.132;2023-07-13T03:39:37;22.10;97.50
8945;DHT22;4507;40.232;29.132;2023-07-13T03:42:07;22.20;97.50
8945;DHT22;4507;40.232;29.132;2023-07-13T03:44:36;22.20;97.50
8945;DHT22;4507;40.232;29.132;2023-07-13T03:47:05;22.30;97.50
8945;DHT22;4507;40.232;29.132;2023-07-13T03:49:38;22.30;97.40
8945;DHT22;4507;40.232;29.132;2023-07-13T03:52:07;22.40;97.50
8945;DHT22;4507;40.232;29.132;2023-07-13T03:54:36;22.50;97.40
8945;DHT22;4507;40.232;29.132;2023-07-13T03:57:06;22.60;97.30
8945;DHT22;4507;40.232;29.132;2023-07-13T03:59:36;22.70;97.20
8945;DHT22;4507;40.232;29.132;2023-07-13T04:02:07;22.70;97.10
8945;DHT22;4507;40.232;29.132;2023-07-13T04:04:38;22.80;97.00
8945;DHT22;4507;40.232;29.132;2023-07-13T04:07:08;22.90;96.90
8945;DHT22;4507;40.232;29.132;2023-07-13T04:09:39;23.00;96.90
8945;DHT22;4507;40.232;29.132;2023-07-13T04:12:10;23.00;96.70
8945;DHT22;4507;40.232;29.132;2023-07-13T04:14:40;23.10;96.70
8945;DHT22;4507;40.232;29.132;2023-07-13T04:17:09;23.10;96.70
8945;DHT22;4507;40.232;29.132;2023-07-13T04:19:39;23.10;96.70
8945;DHT22;4507;40.232;29.132;2023-07-13T04:22:08;23.10;96.80
8945;DHT22;4507;40.232;29.132;2023-07-13T04:24:37;23.20;96.80
8945;DHT22;4507;40.232;29.132;2023-07-13T04:27:06;23.20;96.80
8945;DHT22;4507;40.232;29.132;2023-07-13T04:29:35;23.30;96.90
8945;DHT22;4507;40.232;29.132;2023-07-13T04:32:05;23.30;96.80
8945;DHT22;4507;40.232;29.132;2023-07-13T04:34:34;23.30;96.60
8945;DHT22;4507;40.232;29.132;2023-07-13T04:37:05;23.40;96.40
8945;DHT22;4507;40.232;29.132;2023-07-13T04:39:34;23.50;96.40
8945;DHT22;4507;40.232;29.132;2023-07-13T04:42:04;23.50;96.20
8945;DHT22;4507;40.232;29.132;2023-07-13T04:44:33;23.60;96.10
8945;DHT22;4507;40.232;29.132;2023-07-13T04:47:02;23.60;95.90
8945;DHT22;4507;40.232;29.132;2023-07-13T04:49:31;23.70;95.80
8945;DHT22;4507;40.232;29.132;2023-07-13T04:52:00;23.80;95.60
8945;DHT22;4507;40.232;29.132;2023-07-13T04:54:31;23.80;95.50
8945;DHT22;4507;40.232;29.132;2023-07-13T04:57:00;23.90;95.40
8945;DHT22;4507;40.232;29.132;2023-07-13T04:59:29;24.00;95.40
8945;DHT22;4507;40.232;29.132;2023-07-13T05:01:58;24.00;95.20
8945;DHT22;4507;40.232;29.132;2023-07-13T05:04:27;24.10;95.10
8945;DHT22;4507;40.232;29.132;2023-07-13T05:06:56;24.20;95.00
8945;DHT22;4507;40.232;29.132;2023-07-13T05:09:25;24.20;94.80
8945;DHT22;4507;40.232;29.132;2023-07-13T05:11:55;24.30;94.60
8945;DHT22;4507;40.232;29.132;2023-07-13T05:14:25;24.40;94.50
8945;DHT22;4507;40.232;29.132;2023-07-13T05:16:54;24.50;94.30
8945;DHT22;4507;40.232;29.132;2023-07-13T05:19:24;24.60;94.10
8945;DHT22;4507;40.232;29.132;2023-07-13T05:21:53;24.60;93.90
8945;DHT22;4507;40.232;29.132;2023-07-13T05:24:22;24.70;93.80
8945;DHT22;4507;40.232;29.132;2023-07-13T05:26:52;24.80;93.70
8945;DHT22;4507;40.232;29.132;2023-07-13T05:29:23;24.80;93.50
8945;DHT22;4507;40.232;29.132;2023-07-13T05:31:52;24.90;93.40
8945;DHT22;4507;40.232;29.132;2023-07-13T05:34:21;25.00;93.40
8945;DHT22;4507;40.232;29.132;2023-07-13T05:36:50;25.10;93.30
8945;DHT22;4507;40.232;29.132;2023-07-13T05:39:19;25.20;93.20
8945;DHT22;4507;40.232;29.132;2023-07-13T05:41:48;25.20;93.20
8945;DHT22;4507;40.232;29.132;2023-07-13T05:44:17;25.30;93.20
8945;DHT22;4507;40.232;29.132;2023-07-13T05:46:48;25.40;93.10
8945;DHT22;4507;40.232;29.132;2023-07-13T05:49:17;25.50;93.00
8945;DHT22;4507;40.232;29.132;2023-07-13T05:51:46;25.60;93.00
8945;DHT22;4507;40.232;29.132;2023-07-13T05:54:15;25.70;92.90
8945;DHT22;4507;40.232;29.132;2023-07-13T05:56:44;25.80;92.90
8945;DHT22;4507;40.232;29.132;2023-07-13T05:59:13;25.90;92.70
8945;DHT22;4507;40.232;29.132;2023-07-13T06:01:42;26.00;92.70
8945;DHT22;4507;40.232;29.132;2023-07-13T06:04:12;26.10;92.60
8945;DHT22;4507;40.232;29.132;2023-07-13T06:06:41;26.20;92.50
8945;DHT22;4507;40.232;29.132;2023-07-13T06:09:10;26.30;92.50
8945;DHT22;4507;40.232;29.132;2023-07-13T06:11:39;26.40;92.40
8945;DHT22;4507;40.232;29.132;2023-07-13T06:14:08;26.50;92.40
8945;DHT22;4507;40.232;29.132;2023-07-13T06:16:37;26.60;92.40
8945;DHT22;4507;40.232;29.132;2023-07-13T06:19:06;26.70;92.10
8945;DHT22;4507;40.232;29.132;2023-07-13T06:21:37;26.80;91.80
8945;DHT22;4507;40.232;29.132;2023-07-13T06:24:06;26.90;91.90
8945;DHT22;4507;40.232;29.132;2023-07-13T06:26:35;27.10;91.60
8945;DHT22;4507;40.232;29.132;2023-07-13T06:29:03;27.20;91.40
8945;DHT22;4507;40.232;29.132;2023-07-13T06:31:33;27.40;91.20
8945;DHT22;4507;40.232;29.132;2023-07-13T06:34:02;27.50;91.10
8945;DHT22;4507;40.232;29.132;2023-07-13T06:36:31;27.60;90.70
8945;DHT22;4507;40.232;29.132;2023-07-13T06:39:01;27.70;90.50
8945;DHT22;4507;40.232;29.132;2023-07-13T06:41:30;27.80;90.40
8945;DHT22;4507;40.232;29.132;2023-07-13T06:44:00;28.00;90.30
8945;DHT22;4507;40.232;29.132;2023-07-13T06:46:29;28.10;90.10
8945;DHT22;4507;40.232;29.132;2023-07-13T06:48:58;28.20;89.90
8945;DHT22;4507;40.232;29.132;2023-07-13T06:51:27;28.20;89.40
8945;DHT22;4507;40.232;29.132;2023-07-13T06:53:56;28.30;88.90
8945;DHT22;4507;40.232;29.132;2023-07-13T06:56:27;28.50;88.20
8945;DHT22;4507;40.232;29.132;2023-07-13T06:58:55;28.60;88.00
8945;DHT22;4507;40.232;29.132;2023-07-13T07:01:24;28.70;87.30
8945;DHT22;4507;40.232;29.132;2023-07-13T07:03:53;28.80;86.60
8945;DHT22;4507;40.232;29.132;2023-07-13T07:06:23;28.90;86.50
8945;DHT22;4507;40.232;29.132;2023-07-13T07:08:52;29.00;86.60
8945;DHT22;4507;40.232;29.132;2023-07-13T07:11:27;29.10;85.80
8945;DHT22;4507;40.232;29.132;2023-07-13T07:13:57;29.20;85.20
8945;DHT22;4507;40.232;29.132;2023-07-13T07:16:26;29.30;85.10
8945;DHT22;4507;40.232;29.132;2023-07-13T07:18:55;29.40;84.70
8945;DHT22;4507;40.232;29.132;2023-07-13T07:21:24;29.40;84.70
8945;DHT22;4507;40.232;29.132;2023-07-13T07:23:53;29.50;84.60
8945;DHT22;4507;40.232;29.132;2023-07-13T07:26:22;29.60;85.00
8945;DHT22;4507;40.232;29.132;2023-07-13T07:29:15;29.70;84.60
8945;DHT22;4507;40.232;29.132;2023-07-13T07:31:47;29.80;83.90
8945;DHT22;4507;40.232;29.132;2023-07-13T07:34:33;29.90;83.40
8945;DHT22;4507;40.232;29.132;2023-07-13T07:37:02;30.00;83.80
8945;DHT22;4507;40.232;29.132;2023-07-13T07:39:34;30.10;83.60
8945;DHT22;4507;40.232;29.132;2023-07-13T07:42:07;30.10;82.50
8945;DHT22;4507;40.232;29.132;2023-07-13T07:44:37;30.30;82.50
8945;DHT22;4507;40.232;29.132;2023-07-13T07:47:06;30.40;82.00
8945;DHT22;4507;40.232;29.132;2023-07-13T07:49:36;30.40;81.20
8945;DHT22;4507;40.232;29.132;2023-07-13T07:52:06;30.50;81.30
8945;DHT22;4507;40.232;29.132;2023-07-13T07:54:36;30.60;80.90
8945;DHT22;4507;40.232;29.132;2023-07-13T07:57:08;30.60;80.70
8945;DHT22;4507;40.232;29.132;2023-07-13T07:59:41;30.70;80.40
8945;DHT22;4507;40.232;29.132;2023-07-13T08:02:13;30.80;80.60
8945;DHT22;4507;40.232;29.132;2023-07-13T08:05:03;30.90;79.90
8945;DHT22;4507;40.232;29.132;2023-07-13T08:07:35;31.00;79.80
8945;DHT22;4507;40.232;29.132;2023-07-13T08:10:04;31.10;79.60
8945;DHT22;4507;40.232;29.132;2023-07-13T08:12:34;31.20;79.00
8945;DHT22;4507;40.232;29.132;2023-07-13T08:15:10;31.30;77.90
8945;DHT22;4507;40.232;29.132;2023-07-13T08:17:40;31.40;76.70
8945;DHT22;4507;40.232;29.132;2023-07-13T08:20:09;31.50;76.40
8945;DHT22;4507;40.232;29.132;2023-07-13T08:22:38;31.60;75.50
8945;DHT22;4507;40.232;29.132;2023-07-13T08:25:11;31.60;75.00
8945;DHT22;4507;40.232;29.132;2023-07-13T08:27:58;31.70;74.80
8945;DHT22;4507;40.232;29.132;2023-07-13T08:30:29;31.80;73.60
8945;DHT22;4507;40.232;29.132;2023-07-13T08:32:58;32.00;72.90
8945;DHT22;4507;40.232;29.132;2023-07-13T08:35:27;32.00;72.40
8945;DHT22;4507;40.232;29.132;2023-07-13T08:37:57;32.20;71.30
8945;DHT22;4507;40.232;29.132;2023-07-13T08:40:27;32.30;70.50
8945;DHT22;4507;40.232;29.132;2023-07-13T08:42:58;32.40;69.40
8945;DHT22;4507;40.232;29.132;2023-07-13T08:45:40;32.50;67.00
8945;DHT22;4507;40.232;29.132;2023-07-13T08:48:15;32.60;65.20
8945;DHT22;4507;40.232;29.132;2023-07-13T08:50:51;32.70;64.70
8945;DHT22;4507;40.232;29.132;2023-07-13T08:53:44;32.90;63.50
8945;DHT22;4507;40.232;29.132;2023-07-13T08:56:18;33.00;63.00
8945;DHT22;4507;40.232;29.132;2023-07-13T08:58:51;33.10;61.60
8945;DHT22;4507;40.232;29.132;2023-07-13T09:01:30;33.20;61.20
8945;DHT22;4507;40.232;29.132;2023-07-13T09:04:05;33.30;61.40
8945;DHT22;4507;40.232;29.132;2023-07-13T09:06:45;33.40;60.70
8945;DHT22;4507;40.232;29.132;2023-07-13T09:09:23;33.50;58.80
8945;DHT22;4507;40.232;29.132;2023-07-13T09:11:56;33.60;58.10
8945;DHT22;4507;40.232;29.132;2023-07-13T09:14:38;33.70;57.80
8945;DHT22;4507;40.232;29.132;2023-07-13T09:17:16;33.80;57.20
8945;DHT22;4507;40.232;29.132;2023-07-13T09:19:59;33.90;57.40
8945;DHT22;4507;40.232;29.132;2023-07-13T09:22:52;34.00;56.50
8945;DHT22;4507;40.232;29.132;2023-07-13T09:25:24;34.10;56.40
8945;DHT22;4507;40.232;29.132;2023-07-13T09:28:02;34.20;55.20
8945;DHT22;4507;40.232;29.132;2023-07-13T09:30:53;34.30;55.60
8945;DHT22;4507;40.232;29.132;2023-07-13T09:33:26;34.40;55.60
8945;DHT22;4507;40.232;29.132;2023-07-13T09:35:57;34.50;55.30
8945;DHT22;4507;40.232;29.132;2023-07-13T09:38:28;34.60;54.30
8945;DHT22;4507;40.232;29.132;2023-07-13T09:41:14;34.70;53.60
8945;DHT22;4507;40.232;29.132;2023-07-13T09:44:12;34.70;53.60
8945;DHT22;4507;40.232;29.132;2023-07-13T09:46:45;34.80;53.30
8945;DHT22;4507;40.232;29.132;2023-07-13T09:49:17;34.90;53.70
8945;DHT22;4507;40.232;29.132;2023-07-13T09:52:06;35.00;52.90
8945;DHT22;4507;40.232;29.132;2023-07-13T09:54:36;35.00;53.70
8945;DHT22;4507;40.232;29.132;2023-07-13T09:57:13;35.10;53.10
8945;DHT22;4507;40.232;29.132;2023-07-13T09:59:45;35.20;52.80
8945;DHT22;4507;40.232;29.132;2023-07-13T10:02:24;35.30;52.80
8945;DHT22;4507;40.232;29.132;2023-07-13T10:04:59;35.40;52.50
8945;DHT22;4507;40.232;29.132;2023-07-13T10:07:29;35.40;51.40
8945;DHT22;4507;40.232;29.132;2023-07-13T10:09:59;35.50;50.70
8945;DHT22;4507;40.232;29.132;2023-07-13T10:12:35;35.50;51.20
8945;DHT22;4507;40.232;29.132;2023-07-13T10:15:15;35.60;50.50
8945;DHT22;4507;40.232;29.132;2023-07-13T10:17:51;35.70;50.50
8945;DHT22;4507;40.232;29.132;2023-07-13T10:20:22;35.80;50.40
8945;DHT22;4507;40.232;29.132;2023-07-13T10:22:56;35.80;50.10
8945;DHT22;4507;40.232;29.132;2023-07-13T10:25:31;35.90;50.00
8945;DHT22;4507;40.232;29.132;2023-07-13T10:28:04;35.90;49.30
8945;DHT22;4507;40.232;29.132;2023-07-13T10:30:35;36.00;49.40
8945;DHT22;4507;40.232;29.132;2023-07-13T10:33:11;36.10;50.10
8945;DHT22;4507;40.232;29.132;2023-07-13T10:35:44;36.30;49.60
8945;DHT22;4507;40.232;29.132;2023-07-13T10:38:17;36.30;48.90
8945;DHT22;4507;40.232;29.132;2023-07-13T10:40:53;36.40;48.60
8945;DHT22;4507;40.232;29.132;2023-07-13T10:43:28;36.50;48.10
8945;DHT22;4507;40.232;29.132;2023-07-13T10:45:59;36.50;48.20
8945;DHT22;4507;40.232;29.132;2023-07-13T10:48:30;36.50;47.80
8945;DHT22;4507;40.232;29.132;2023-07-13T10:51:02;36.50;48.50
8945;DHT22;4507;40.232;29.132;2023-07-13T10:53:36;36.60;48.60
8945;DHT22;4507;40.232;29.132;2023-07-13T10:56:10;36.60;48.10
8945;DHT22;4507;40.232;29.132;2023-07-13T10:58:45;36.70;47.90
8945;DHT22;4507;40.232;29.132;2023-07-13T11:01:16;36.80;47.90
8945;DHT22;4507;40.232;29.132;2023-07-13T11:03:54;36.80;48.10
8945;DHT22;4507;40.232;29.132;2023-07-13T11:06:34;36.90;48.60
8945;DHT22;4507;40.232;29.132;2023-07-13T11:09:28;37.00;47.70
8945;DHT22;4507;40.232;29.132;2023-07-13T11:11:59;37.00;47.90
8945;DHT22;4507;40.232;29.132;2023-07-13T11:14:34;37.20;47.80
8945;DHT22;4507;40.232;29.132;2023-07-13T11:17:35;37.30;47.30
8945;DHT22;4507;40.232;29.132;2023-07-13T11:20:23;37.30;47.00
8945;DHT22;4507;40.232;29.132;2023-07-13T11:25:55;37.40;46.00
8945;DHT22;4507;40.232;29.132;2023-07-13T11:28:26;37.50;47.20
8945;DHT22;4507;40.232;29.132;2023-07-13T11:31:03;37.40;46.20
8945;DHT22;4507;40.232;29.132;2023-07-13T11:33:58;37.50;46.30
8945;DHT22;4507;40.232;29.132;2023-07-13T11:36:36;37.60;45.80
8945;DHT22;4507;40.232;29.132;2023-07-13T11:39:22;37.70;47.20
8945;DHT22;4507;40.232;29.132;2023-07-13T11:41:55;37.80;46.90
8945;DHT22;4507;40.232;29.132;2023-07-13T11:44:27;37.90;47.40
8945;DHT22;4507;40.232;29.132;2023-07-13T11:46:59;38.00;46.90
8945;DHT22;4507;40.232;29.132;2023-07-13T11:49:40;38.00;46.70
8945;DHT22;4507;40.232;29.132;2023-07-13T11:52:33;38.10;46.40
8945;DHT22;4507;40.232;29.132;2023-07-13T11:55:13;38.10;46.10
8945;DHT22;4507;40.232;29.132;2023-07-13T11:57:47;38.20;45.40
8945;DHT22;4507;40.232;29.132;2023-07-13T12:00:21;38.30;45.60
8945;DHT22;4507;40.232;29.132;2023-07-13T12:02:55;38.20;45.50
8945;DHT22;4507;40.232;29.132;2023-07-13T12:05:26;38.40;45.40
8945;DHT22;4507;40.232;29.132;2023-07-13T12:07:59;38.50;44.00
8945;DHT22;4507;40.232;29.132;2023-07-13T12:10:30;38.50;43.50
8945;DHT22;4507;40.232;29.132;2023-07-13T12:13:02;38.60;43.30
8945;DHT22;4507;40.232;29.132;2023-07-13T12:15:38;38.70;42.60
8945;DHT22;4507;40.232;29.132;2023-07-13T12:18:13;38.70;41.70
8945;DHT22;4507;40.232;29.132;2023-07-13T12:20:44;38.70;41.70
8945;DHT22;4507;40.232;29.132;2023-07-13T12:23:22;38.80;40.40
8945;DHT22;4507;40.232;29.132;2023-07-13T12:26:13;38.70;39.60
8945;DHT22;4507;40.232;29.132;2023-07-13T12:28:46;38.70;39.40
8945;DHT22;4507;40.232;29.132;2023-07-13T12:31:30;38.70;39.80
8945;DHT22;4507;40.232;29.132;2023-07-13T12:34:05;38.60;39.80
8945;DHT22;4507;40.232;29.132;2023-07-13T12:36:37;38.50;40.40
8945;DHT22;4507;40.232;29.132;2023-07-13T12:39:15;38.50;40.30
8945;DHT22;4507;40.232;29.132;2023-07-13T12:41:46;38.40;40.10
8945;DHT22;4507;40.232;29.132;2023-07-13T12:44:16;38.30;39.90
8945;DHT22;4507;40.232;29.132;2023-07-13T12:46:55;38.30;40.00
8945;DHT22;4507;40.232;29.132;2023-07-13T12:49:28;38.30;40.60
8945;DHT22;4507;40.232;29.132;2023-07-13T12:51:58;38.30;40.30
8945;DHT22;4507;40.232;29.132;2023-07-13T12:54:29;38.30;40.20
8945;DHT22;4507;40.232;29.132;2023-07-13T12:57:00;38.30;40.00
8945;DHT22;4507;40.232;29.132;2023-07-13T12:59:32;38.30;40.10
8945;DHT22;4507;40.232;29.132;2023-07-13T13:02:21;38.20;40.20
8945;DHT22;4507;40.232;29.132;2023-07-13T13:04:51;38.20;40.50
8945;DHT22;4507;40.232;29.132;2023-07-13T13:07:23;38.10;40.60
8945;DHT22;4507;40.232;29.132;2023-07-13T13:10:12;38.00;40.50
8945;DHT22;4507;40.232;29.132;2023-07-13T13:12:42;37.90;40.60
8945;DHT22;4507;40.232;29.132;2023-07-13T13:15:11;37.90;40.80
8945;DHT22;4507;40.232;29.132;2023-07-13T13:17:41;37.90;40.40
8945;DHT22;4507;40.232;29.132;2023-07-13T13:20:15;37.90;40.60
8945;DHT22;4507;40.232;29.132;2023-07-13T13:22:44;37.90;40.40
8945;DHT22;4507;40.232;29.132;2023-07-13T13:25:15;37.90;40.70
8945;DHT22;4507;40.232;29.132;2023-07-13T13:27:46;37.80;40.90
8945;DHT22;4507;40.232;29.132;2023-07-13T13:30:17;37.70;41.50
8945;DHT22;4507;40.232;29.132;2023-07-13T13:32:48;37.60;41.20
8945;DHT22;4507;40.232;29.132;2023-07-13T13:35:19;37.60;41.50
8945;DHT22;4507;40.232;29.132;2023-07-13T13:37:48;37.50;42.00
8945;DHT22;4507;40.232;29.132;2023-07-13T13:40:20;37.50;41.60
8945;DHT22;4507;40.232;29.132;2023-07-13T13:42:51;37.40;41.50
8945;DHT22;4507;40.232;29.132;2023-07-13T13:45:22;37.40;41.50
8945;DHT22;4507;40.232;29.132;2023-07-13T13:47:52;37.30;41.70
8945;DHT22;4507;40.232;29.132;2023-07-13T13:50:22;37.30;41.50
8945;DHT22;4507;40.232;29.132;2023-07-13T13:52:51;37.30;41.60
8945;DHT22;4507;40.232;29.132;2023-07-13T13:55:21;37.30;41.80
8945;DHT22;4507;40.232;29.132;2023-07-13T13:57:53;37.30;41.30
8945;DHT22;4507;40.232;29.132;2023-07-13T14:00:25;37.30;40.20
8945;DHT22;4507;40.232;29.132;2023-07-13T14:02:58;37.30;39.60
8945;DHT22;4507;40.232;29.132;2023-07-13T14:05:28;37.20;39.70
8945;DHT22;4507;40.232;29.132;2023-07-13T14:07:57;37.20;39.30
8945;DHT22;4507;40.232;29.132;2023-07-13T14:10:27;37.20;38.70
8945;DHT22;4507;40.232;29.132;2023-07-13T14:12:58;37.20;38.60
8945;DHT22;4507;40.232;29.132;2023-07-13T14:15:28;37.20;38.20
8945;DHT22;4507;40.232;29.132;2023-07-13T14:17:59;37.10;38.30
8945;DHT22;4507;40.232;29.132;2023-07-13T14:20:28;37.10;38.40
8945;DHT22;4507;40.232;29.132;2023-07-13T14:22:58;37.10;37.80
8945;DHT22;4507;40.232;29.132;2023-07-13T14:25:27;37.10;37.40
8945;DHT22;4507;40.232;29.132;2023-07-13T14:27:59;37.00;37.70
8945;DHT22;4507;40.232;29.132;2023-07-13T14:30:31;37.00;36.60
8945;DHT22;4507;40.232;29.132;2023-07-13T14:33:00;37.00;37.10
8945;DHT22;4507;40.232;29.132;2023-07-13T14:35:29;36.90;37.30
8945;DHT22;4507;40.232;29.132;2023-07-13T14:37:59;36.90;37.40
8945;DHT22;4507;40.232;29.132;2023-07-13T14:40:46;36.90;37.20
8945;DHT22;4507;40.232;29.132;2023-07-13T14:43:17;36.90;36.50
8945;DHT22;4507;40.232;29.132;2023-07-13T14:45:48;36.80;35.90
8945;DHT22;4507;40.232;29.132;2023-07-13T14:48:21;36.80;35.10
8945;DHT22;4507;40.232;29.132;2023-07-13T14:50:53;36.70;35.40
8945;DHT22;4507;40.232;29.132;2023-07-13T14:53:25;36.70;35.60
8945;DHT22;4507;40.232;29.132;2023-07-13T14:55:55;36.70;36.00
8945;DHT22;4507;40.232;29.132;2023-07-13T14:58:26;36.70;36.30
8945;DHT22;4507;40.232;29.132;2023-07-13T15:00:58;36.60;35.90
8945;DHT22;4507;40.232;29.132;2023-07-13T15:03:27;36.60;35.50
8945;DHT22;4507;40.232;29.132;2023-07-13T15:05:57;36.50;35.50
8945;DHT22;4507;40.232;29.132;2023-07-13T15:08:26;36.50;36.60
8945;DHT22;4507;40.232;29.132;2023-07-13T15:10:55;36.40;37.70
8945;DHT22;4507;40.232;29.132;2023-07-13T15:13:29;36.40;38.40
8945;DHT22;4507;40.232;29.132;2023-07-13T15:15:58;36.30;39.30
8945;DHT22;4507;40.232;29.132;2023-07-13T15:18:27;36.30;40.10
8945;DHT22;4507;40.232;29.132;2023-07-13T15:20:57;36.20;40.70
8945;DHT22;4507;40.232;29.132;2023-07-13T15:23:30;36.20;41.10
8945;DHT22;4507;40.232;29.132;2023-07-13T15:25:59;36.10;40.70
8945;DHT22;4507;40.232;29.132;2023-07-13T15:28:29;36.00;41.30
8945;DHT22;4507;40.232;29.132;2023-07-13T15:30:58;36.00;41.60
8945;DHT22;4507;40.232;29.132;2023-07-13T15:33:29;36.00;41.70
8945;DHT22;4507;40.232;29.132;2023-07-13T15:35:58;36.00;41.60
8945;DHT22;4507;40.232;29.132;2023-07-13T15:38:30;36.00;41.90
8945;DHT22;4507;40.232;29.132;2023-07-13T15:41:00;35.90;42.20
8945;DHT22;4507;40.232;29.132;2023-07-13T15:43:32;35.90;42.10
8945;DHT22;4507;40.232;29.132;2023-07-13T15:46:01;35.90;42.10
8945;DHT22;4507;40.232;29.132;2023-07-13T15:48:30;35.80;42.60
8945;DHT22;4507;40.232;29.132;2023-07-13T15:51:03;35.80;42.90
8945;DHT22;4507;40.232;29.132;2023-07-13T15:53:53;35.80;42.70
8945;DHT22;4507;40.232;29.132;2023-07-13T15:56:24;35.70;43.10
8945;DHT22;4507;40.232;29.132;2023-07-13T15:58:56;35.70;43.60
8945;DHT22;4507;40.232;29.132;2023-07-13T16:01:26;35.60;44.10
8945;DHT22;4507;40.232;29.132;2023-07-13T16:03:56;35.50;44.70
8945;DHT22;4507;40.232;29.132;2023-07-13T16:06:27;35.40;45.20
8945;DHT22;4507;40.232;29.132;2023-07-13T16:08:57;35.30;46.10
8945;DHT22;4507;40.232;29.132;2023-07-13T16:11:32;35.30;46.60
8945;DHT22;4507;40.232;29.132;2023-07-13T16:14:03;35.20;47.60
8945;DHT22;4507;40.232;29.132;2023-07-13T16:16:36;35.20;48.10
8945;DHT22;4507;40.232;29.132;2023-07-13T16:19:10;35.00;48.60
8945;DHT22;4507;40.232;29.132;2023-07-13T16:21:43;35.00;49.10
8945;DHT22;4507;40.232;29.132;2023-07-13T16:24:17;34.80;49.30
8945;DHT22;4507;40.232;29.132;2023-07-13T16:26:48;34.70;49.70
8945;DHT22;4507;40.232;29.132;2023-07-13T16:29:20;34.60;50.00
8945;DHT22;4507;40.232;29.132;2023-07-13T16:32:01;34.50;49.20
8945;DHT22;4507;40.232;29.132;2023-07-13T16:34:31;34.30;48.20
8945;DHT22;4507;40.232;29.132;2023-07-13T16:37:00;34.20;47.80